Time;durP1;ratioP1;P1;durP2;ratioP2;P2;SDS_P1;SDS_P2;PMS_P1;PMS_P2;Temp;Humidity;BMP_temperature;BMP_pressure;BME280_temperature;BME280_humidity;BME280_pressure;Samples;Min_cycle;Max_cycle;Signal;HPM_P1;HPM_P2
2021/05/01 00:02:09;;;;;;;15.68;6.90;;;9.40;67.60;;;;;;4947320;28;20098;-85
2021/05/01 00:04:40;;;;;;;12.55;5.65;;;9.30;69.10;;;;;;4938575;29;20238;-83
2021/05/01 00:07:14;;;;;;;11.13;5.60;;;9.20;69.40;;;;;;4951043;28;20047;-82
2021/05/01 00:09:42;;;;;;;12.10;6.40;;;9.20;69.90;;;;;;4936364;29;20311;-84
2021/05/01 00:12:10;;;;;;;10.73;6.40;;;9.20;70.50;;;;;;4968383;28;20250;-84
2021/05/01 00:14:39;;;;;;;8.50;5.35;;;9.20;70.90;;;;;;4936570;29;20071;-83
2021/05/01 00:17:13;;;;;;;10.73;5.53;;;9.20;71.10;;;;;;4955058;28;20102;-86
2021/05/01 00:19:40;;;;;;;9.30;4.97;;;9.10;71.60;;;;;;4959460;28;20077;-85
2021/05/01 00:22:08;;;;;;;11.90;5.55;;;9.10;72.20;;;;;;4950942;28;20051;-83
2021/05/01 00:24:37;;;;;;;8.68;4.65;;;9.00;73.00;;;;;;4956020;28;20279;-84
2021/05/01 00:27:05;;;;;;;8.80;5.22;;;9.00;73.40;;;;;;4967381;28;20059;-84
2021/05/01 00:29:32;;;;;;;10.88;5.22;;;8.90;73.50;;;;;;4958676;28;20051;-85
2021/05/01 00:31:59;;;;;;;8.98;4.85;;;8.90;73.60;;;;;;4957927;28;20079;-86
2021/05/01 00:34:26;;;;;;;8.13;5.18;;;8.90;73.90;;;;;;4942809;29;20110;-84
2021/05/01 00:36:53;;;;;;;15.85;5.22;;;8.90;73.90;;;;;;4931556;29;20110;-84
2021/05/01 00:39:20;;;;;;;10.68;5.25;;;8.90;73.90;;;;;;4950725;28;20051;-84
2021/05/01 00:41:48;;;;;;;10.05;5.30;;;8.90;73.80;;;;;;4953397;28;20047;-85
2021/05/01 00:44:18;;;;;;;11.82;5.03;;;8.90;73.40;;;;;;4968705;28;20084;-84
2021/05/01 00:46:47;;;;;;;10.10;4.55;;;8.80;73.50;;;;;;4960936;28;20058;-86
2021/05/01 00:49:14;;;;;;;8.25;4.55;;;8.80;73.80;;;;;;4953248;28;20070;-87
2021/05/01 00:51:41;;;;;;;7.78;4.57;;;8.80;74.00;;;;;;4962321;28;20055;-86
2021/05/01 00:54:08;;;;;;;11.90;5.10;;;8.80;74.20;;;;;;4963275;28;20075;-85
2021/05/01 00:56:36;;;;;;;8.85;4.93;;;8.70;74.30;;;;;;4961195;28;20059;-85
2021/05/01 00:59:07;;;;;;;9.48;4.55;;;8.70;74.60;;;;;;4954017;28;20055;-84
2021/05/01 01:01:34;;;;;;;6.57;3.72;;;8.70;74.80;;;;;;4959771;28;20051;-85
2021/05/01 01:04:03;;;;;;;7.20;4.80;;;8.70;75.30;;;;;;4954033;28;20097;-85
2021/05/01 01:06:30;;;;;;;7.18;4.50;;;8.60;75.70;;;;;;4934630;29;20042;-85
2021/05/01 01:08:57;;;;;;;7.10;4.18;;;8.60;75.90;;;;;;4962008;28;20059;-85
2021/05/01 01:11:25;;;;;;;7.00;3.53;;;8.60;75.50;;;;;;4952628;28;20043;-86
2021/05/01 01:13:53;;;;;;;8.55;4.50;;;8.60;75.40;;;;;;4970014;28;20062;-85
2021/05/01 01:16:21;;;;;;;6.90;3.75;;;8.60;74.90;;;;;;4949542;28;20098;-85
2021/05/01 01:18:51;;;;;;;10.57;4.43;;;8.60;74.20;;;;;;4959459;28;20057;-84
2021/05/01 01:21:18;;;;;;;9.32;4.93;;;8.60;73.20;;;;;;4964842;28;20052;-86
2021/05/01 01:23:46;;;;;;;17.02;4.72;;;8.60;72.90;;;;;;4983422;28;20047;-86
2021/05/01 01:26:13;;;;;;;7.88;4.32;;;8.60;73.20;;;;;;4959241;28;20090;-85
2021/05/01 01:28:41;;;;;;;10.25;4.30;;;8.60;73.10;;;;;;4958455;28;20063;-87
2021/05/01 01:31:08;;;;;;;9.32;4.53;;;8.60;72.60;;;;;;4969505;28;20115;-86
2021/05/01 01:33:38;;;;;;;11.70;4.72;;;8.60;72.60;;;;;;4963878;28;20258;-84
2021/05/01 01:36:06;;;;;;;7.57;4.07;;;8.60;72.80;;;;;;4963503;28;20050;-86
2021/05/01 01:38:34;;;;;;;10.15;4.30;;;8.60;73.50;;;;;;4977774;28;20059;-85
2021/05/01 01:41:02;;;;;;;12.10;4.43;;;8.60;74.40;;;;;;4964319;28;20054;-86
2021/05/01 01:43:29;;;;;;;10.48;3.90;;;8.70;74.80;;;;;;4964557;28;20058;-83
2021/05/01 01:45:56;;;;;;;12.93;4.95;;;8.60;75.10;;;;;;4979981;28;20044;-86
2021/05/01 01:48:26;;;;;;;7.78;4.60;;;8.60;75.30;;;;;;4969799;28;20342;-86
2021/05/01 01:50:53;;;;;;;7.43;4.07;;;8.50;75.50;;;;;;4948079;29;20115;-86
2021/05/01 01:53:24;;;;;;;8.52;3.88;;;8.50;75.80;;;;;;4953199;28;20043;-85
2021/05/01 01:55:51;;;;;;;7.00;3.70;;;8.50;75.80;;;;;;4969202;28;20075;-84
2021/05/01 01:58:30;;;;;;;6.43;3.10;;;8.50;76.10;;;;;;4968213;28;20512;-85
2021/05/01 02:00:58;;;;;;;6.45;3.55;;;8.40;76.60;;;;;;4954993;28;20051;-85
2021/05/01 02:03:27;;;;;;;6.80;3.58;;;8.30;76.90;;;;;;4961685;28;20055;-85
2021/05/01 02:05:54;;;;;;;8.35;3.38;;;8.30;77.20;;;;;;4958255;28;20065;-84
2021/05/01 02:08:21;;;;;;;8.93;3.85;;;8.20;77.60;;;;;;4954318;28;20062;-86
2021/05/01 02:10:48;;;;;;;9.75;4.05;;;8.20;77.50;;;;;;4963083;28;20295;-84
2021/05/01 02:13:20;;;;;;;7.78;3.40;;;8.20;77.30;;;;;;4950984;28;20086;-82
2021/05/01 02:15:48;;;;;;;9.45;3.88;;;8.20;77.30;;;;;;4969473;28;20063;-86
2021/05/01 02:18:16;;;;;;;8.70;3.80;;;8.20;77.40;;;;;;4959539;28;20055;-86
2021/05/01 02:20:43;;;;;;;9.02;4.57;;;8.10;77.30;;;;;;4972352;28;20047;-85
2021/05/01 02:23:12;;;;;;;7.03;3.28;;;8.10;77.00;;;;;;4961554;28;20173;-87
2021/05/01 02:25:43;;;;;;;8.85;3.95;;;8.10;76.80;;;;;;4955030;28;20060;-85
2021/05/01 02:28:10;;;;;;;8.80;3.65;;;8.10;76.70;;;;;;4957895;28;20258;-84
2021/05/01 02:30:39;;;;;;;7.28;3.35;;;8.20;76.20;;;;;;4952561;28;20374;-82
2021/05/01 02:33:14;;;;;;;8.65;3.95;;;8.10;76.00;;;;;;4953759;28;20055;-86
2021/05/01 02:35:42;;;;;;;7.70;3.72;;;8.20;76.20;;;;;;4959736;28;20050;-85
2021/05/01 02:38:09;;;;;;;7.38;3.40;;;8.20;76.30;;;;;;4973935;28;20106;-84
2021/05/01 02:40:38;;;;;;;7.55;3.70;;;8.20;75.90;;;;;;4977338;28;20099;-86
2021/05/01 02:43:06;;;;;;;8.30;4.22;;;8.20;76.10;;;;;;4964992;28;20055;-84
2021/05/01 02:45:34;;;;;;;7.28;3.65;;;8.30;76.00;;;;;;4965791;28;20051;-86
2021/05/01 02:48:03;;;;;;;7.65;3.60;;;8.30;75.70;;;;;;4947374;28;20051;-86
2021/05/01 02:50:31;;;;;;;7.05;4.05;;;8.30;75.50;;;;;;4962937;28;20063;-85
2021/05/01 02:52:58;;;;;;;9.90;4.25;;;8.30;75.30;;;;;;4963506;28;20046;-84
2021/05/01 02:55:25;;;;;;;11.43;4.78;;;8.30;74.90;;;;;;4954674;29;20056;-84
2021/05/01 02:57:53;;;;;;;8.65;3.92;;;8.30;74.70;;;;;;4964129;28;20062;-87
2021/05/01 03:00:24;;;;;;;9.25;4.43;;;8.20;74.70;;;;;;4959378;28;20112;-85
2021/05/01 03:02:51;;;;;;;8.27;3.95;;;8.20;75.00;;;;;;4964622;28;20054;-88
2021/05/01 03:05:21;;;;;;;8.68;4.38;;;8.20;75.20;;;;;;4927420;28;20051;-87
2021/05/01 03:07:49;;;;;;;6.90;3.92;;;8.20;75.20;;;;;;4970642;28;20043;-85
2021/05/01 03:10:18;;;;;;;10.27;5.03;;;8.30;74.40;;;;;;4934880;28;20047;-84
2021/05/01 03:12:45;;;;;;;9.07;4.80;;;8.20;74.40;;;;;;4971642;28;20051;-84
2021/05/01 03:15:14;;;;;;;9.57;4.60;;;8.20;74.30;;;;;;4966072;28;20346;-84
2021/05/01 03:17:42;;;;;;;10.32;4.60;;;8.30;74.30;;;;;;4959335;28;20046;-83
2021/05/01 03:20:10;;;;;;;7.93;4.35;;;8.30;74.40;;;;;;4924108;28;20091;-84
2021/05/01 03:22:40;;;;;;;6.65;3.90;;;8.20;74.60;;;;;;4962806;28;20537;-86
2021/05/01 03:25:09;;;;;;;8.80;3.60;;;8.20;74.80;;;;;;4969148;28;20074;-86
2021/05/01 03:27:37;;;;;;;9.07;3.92;;;8.20;75.00;;;;;;4970065;28;20115;-85
2021/05/01 03:30:06;;;;;;;7.47;3.58;;;8.20;75.20;;;;;;4971406;28;20050;-85
2021/05/01 03:32:33;;;;;;;6.65;3.75;;;8.30;75.40;;;;;;4957375;28;20339;-84
2021/05/01 03:35:01;;;;;;;7.18;4.13;;;8.30;75.00;;;;;;4968124;28;20039;-84
2021/05/01 03:37:33;;;;;;;9.85;4.47;;;8.30;75.20;;;;;;4950057;28;20386;-85
2021/05/01 03:40:00;;;;;;;7.78;4.68;;;8.30;75.30;;;;;;4951869;28;20063;-83
2021/05/01 03:42:31;;;;;;;10.87;4.60;;;8.30;75.60;;;;;;4975035;28;20063;-86
2021/05/01 03:44:58;;;;;;;8.35;4.63;;;8.40;75.20;;;;;;4953797;28;20298;-84
2021/05/01 03:47:25;;;;;;;9.30;4.75;;;8.40;75.50;;;;;;4960109;28;20347;-83
2021/05/01 03:49:52;;;;;;;9.10;4.25;;;8.30;75.70;;;;;;4963037;28;20105;-85
2021/05/01 03:52:19;;;;;;;9.80;4.20;;;8.40;75.70;;;;;;4940765;28;20290;-86
2021/05/01 03:54:46;;;;;;;10.60;5.07;;;8.40;76.00;;;;;;4937202;28;20224;-86
2021/05/01 03:57:13;;;;;;;10.75;4.47;;;8.60;75.20;;;;;;4942805;28;20052;-84
2021/05/01 03:59:41;;;;;;;9.38;4.72;;;8.70;74.90;;;;;;4941783;28;20354;-87
2021/05/01 04:02:08;;;;;;;7.78;3.90;;;8.60;74.70;;;;;;4951329;28;20043;-86
2021/05/01 04:04:35;;;;;;;8.82;4.35;;;8.70;74.40;;;;;;4953523;28;20063;-85
2021/05/01 04:07:03;;;;;;;9.60;4.93;;;8.60;73.70;;;;;;4940982;28;20082;-84
2021/05/01 04:09:30;;;;;;;9.85;4.45;;;8.50;74.60;;;;;;4945816;28;20058;-85
2021/05/01 04:11:57;;;;;;;9.93;5.03;;;8.60;74.00;;;;;;4947053;28;20062;-84
2021/05/01 04:14:24;;;;;;;9.77;5.25;;;8.60;74.20;;;;;;4947292;28;20111;-86
2021/05/01 04:16:52;;;;;;;10.52;4.63;;;8.60;74.10;;;;;;4944106;28;20051;-86
2021/05/01 04:19:19;;;;;;;9.07;4.93;;;8.70;73.40;;;;;;4944990;28;20050;-83
2021/05/01 04:21:50;;;;;;;11.38;4.72;;;8.70;73.10;;;;;;4946400;28;20069;-84
2021/05/01 04:24:17;;;;;;;11.05;4.70;;;8.80;73.00;;;;;;4944411;28;20046;-86
2021/05/01 04:26:44;;;;;;;10.40;5.15;;;8.80;73.00;;;;;;4954092;28;20050;-83
2021/05/01 04:29:11;;;;;;;10.23;5.70;;;8.80;73.20;;;;;;4960676;28;20047;-84
2021/05/01 04:31:39;;;;;;;9.88;5.07;;;8.80;73.40;;;;;;4932949;29;20046;-82
2021/05/01 04:34:07;;;;;;;9.35;4.78;;;8.80;73.50;;;;;;4934749;28;20046;-85
2021/05/01 04:36:34;;;;;;;8.68;4.50;;;8.80;73.80;;;;;;4930522;29;20102;-86
2021/05/01 04:39:02;;;;;;;12.20;5.82;;;8.70;74.10;;;;;;4948167;28;20066;-84
2021/05/01 04:41:29;;;;;;;10.48;5.75;;;8.70;74.20;;;;;;4940856;28;20085;-83
2021/05/01 04:43:56;;;;;;;10.88;5.18;;;8.70;74.00;;;;;;4925702;29;20079;-85
2021/05/01 04:46:23;;;;;;;11.65;5.70;;;8.70;73.70;;;;;;4941614;28;20226;-84
2021/05/01 04:48:50;;;;;;;13.35;6.15;;;8.70;73.80;;;;;;4945754;28;20051;-85
2021/05/01 04:51:19;;;;;;;21.70;6.45;;;8.70;74.10;;;;;;4946410;28;20043;-84
2021/05/01 04:53:46;;;;;;;12.60;5.97;;;8.80;74.00;;;;;;4948373;28;20279;-85
2021/05/01 04:56:13;;;;;;;12.45;5.95;;;8.80;73.90;;;;;;4948287;28;20351;-86
2021/05/01 04:58:40;;;;;;;12.93;5.93;;;8.80;74.10;;;;;;4946329;28;20061;-85
2021/05/01 05:01:07;;;;;;;14.13;6.40;;;8.80;74.10;;;;;;4926636;28;20060;-83
2021/05/01 05:03:34;;;;;;;12.90;6.38;;;8.90;74.00;;;;;;4928639;29;20055;-84
2021/05/01 05:06:04;;;;;;;14.52;6.95;;;8.90;74.00;;;;;;4964456;28;20353;-85
2021/05/01 05:08:32;;;;;;;12.35;6.93;;;8.80;74.00;;;;;;4963881;28;20051;-83
2021/05/01 05:10:59;;;;;;;12.40;6.05;;;8.70;73.90;;;;;;4948525;28;20059;-86
2021/05/01 05:13:32;;;;;;;12.60;5.38;;;8.70;73.90;;;;;;4960835;28;20283;-87
2021/05/01 05:15:59;;;;;;;11.45;5.15;;;8.60;73.80;;;;;;4949774;29;20074;-86
2021/05/01 05:18:27;;;;;;;11.40;5.55;;;8.50;73.70;;;;;;4963734;28;20061;-85
2021/05/01 05:20:55;;;;;;;9.70;5.35;;;8.40;74.60;;;;;;4939547;29;20074;-83
2021/05/01 05:23:22;;;;;;;11.77;5.60;;;8.40;74.60;;;;;;4950026;28;20094;-84
2021/05/01 05:25:51;;;;;;;11.05;5.30;;;8.50;74.80;;;;;;4943300;28;20063;-85
2021/05/01 05:28:19;;;;;;;12.20;5.82;;;8.60;75.00;;;;;;4945039;28;20070;-84
2021/05/01 05:30:46;;;;;;;12.25;6.15;;;8.60;74.70;;;;;;4948117;28;20192;-85
2021/05/01 05:33:14;;;;;;;10.45;5.85;;;8.60;75.40;;;;;;4958115;28;20051;-85
2021/05/01 05:35:41;;;;;;;9.90;5.55;;;8.70;74.80;;;;;;4944358;28;20062;-84
2021/05/01 05:38:08;;;;;;;11.15;6.18;;;8.80;74.40;;;;;;4952644;28;20108;-82
2021/05/01 05:40:35;;;;;;;9.55;4.75;;;8.80;74.00;;;;;;4950914;28;20050;-84
2021/05/01 05:43:05;;;;;;;13.23;5.75;;;8.70;74.20;;;;;;4946605;28;20151;-82
2021/05/01 05:45:32;;;;;;;8.30;5.50;;;8.60;74.50;;;;;;4953120;28;20379;-84
2021/05/01 05:48:00;;;;;;;12.80;6.13;;;8.70;74.20;;;;;;4968400;28;20114;-85
2021/05/01 05:50:29;;;;;;;11.05;5.78;;;8.70;74.30;;;;;;4946923;28;20560;-82
2021/05/01 05:52:56;;;;;;;11.45;7.00;;;8.80;74.20;;;;;;4950287;28;20351;-86
2021/05/01 05:55:24;;;;;;;10.52;5.03;;;8.80;73.90;;;;;;4953392;28;20051;-86
2021/05/01 05:57:54;;;;;;;11.00;5.70;;;9.10;73.00;;;;;;4953479;28;20071;-85
2021/05/01 06:00:24;;;;;;;15.35;6.65;;;9.30;71.90;;;;;;4949519;28;20050;-87
2021/05/01 06:02:53;;;;;;;12.90;6.30;;;9.20;72.50;;;;;;4952298;29;20070;-86
2021/05/01 06:05:26;;;;;;;14.07;6.80;;;9.50;71.10;;;;;;4968535;28;20126;-83
2021/05/01 06:07:58;;;;;;;14.07;7.68;;;9.60;70.30;;;;;;4950143;28;20054;-85
2021/05/01 06:10:26;;;;;;;15.13;7.60;;;9.50;70.10;;;;;;4942781;28;20162;-86
2021/05/01 06:12:54;;;;;;;14.95;7.13;;;9.50;70.10;;;;;;4960114;28;20055;-85
2021/05/01 06:15:22;;;;;;;13.75;8.30;;;9.30;69.70;;;;;;4960268;28;20048;-82
2021/05/01 06:17:52;;;;;;;14.35;7.60;;;9.40;69.90;;;;;;4951823;28;20062;-86
2021/05/01 06:20:20;;;;;;;12.17;7.07;;;9.60;69.10;;;;;;4951458;28;20145;-84
2021/05/01 06:22:49;;;;;;;15.35;7.95;;;9.70;69.10;;;;;;4951926;28;20262;-83
2021/05/01 06:25:17;;;;;;;15.47;7.47;;;9.70;69.00;;;;;;4929981;28;20373;-85
2021/05/01 06:27:44;;;;;;;17.63;9.30;;;9.80;68.80;;;;;;4959721;28;20122;-85
2021/05/01 06:30:13;;;;;;;15.60;7.82;;;9.80;68.90;;;;;;4945023;28;20337;-85
2021/05/01 06:32:41;;;;;;;15.30;8.65;;;10.00;67.80;;;;;;4948242;28;20369;-86
2021/05/01 06:35:09;;;;;;;19.23;9.75;;;9.80;68.00;;;;;;4947685;28;20094;-86
2021/05/01 06:37:39;;;;;;;23.63;10.77;;;9.90;67.80;;;;;;4948939;29;20059;-86
2021/05/01 06:40:09;;;;;;;21.15;10.45;;;10.10;66.80;;;;;;4943511;28;20110;-85
2021/05/01 06:42:40;;;;;;;22.40;10.77;;;10.20;66.20;;;;;;4959775;28;20075;-86
2021/05/01 06:45:12;;;;;;;20.90;10.90;;;10.10;66.60;;;;;;4949634;28;20043;-84
2021/05/01 06:47:47;;;;;;;25.73;11.45;;;10.30;66.50;;;;;;4943601;29;20071;-86
2021/05/01 06:50:15;;;;;;;20.73;9.65;;;10.40;64.80;;;;;;4942752;28;20123;-84
2021/05/01 06:52:44;;;;;;;22.20;10.70;;;10.30;65.20;;;;;;4949303;28;20117;-85
2021/05/01 06:55:13;;;;;;;20.38;10.20;;;10.30;64.60;;;;;;4939068;28;20222;-84
2021/05/01 06:57:44;;;;;;;18.40;10.85;;;10.50;65.20;;;;;;4942341;28;20362;-84
2021/05/01 07:00:13;;;;;;;24.35;10.55;;;10.70;63.50;;;;;;4932871;28;20055;-84
2021/05/01 07:02:44;;;;;;;19.40;9.60;;;10.90;64.10;;;;;;4941779;28;20429;-83
2021/05/01 07:05:14;;;;;;;21.17;11.25;;;11.10;62.80;;;;;;4945816;28;20052;-85
2021/05/01 07:08:00;;;;;;;19.35;10.32;;;11.00;62.10;;;;;;4936583;28;20114;-85
2021/05/01 07:10:34;;;;;;;18.77;10.10;;;11.00;61.90;;;;;;4945041;29;20334;-83
2021/05/01 07:13:13;;;;;;;23.40;11.52;;;11.20;61.30;;;;;;4952339;28;20078;-84
2021/05/01 07:15:41;;;;;;;21.27;10.48;;;11.40;60.60;;;;;;4952975;28;20059;-85
2021/05/01 07:18:17;;;;;;;20.75;10.63;;;11.50;60.30;;;;;;4938510;28;20066;-84
2021/05/01 07:20:46;;;;;;;18.20;9.30;;;11.60;59.50;;;;;;4939606;29;20263;-87
2021/05/01 07:23:16;;;;;;;17.90;9.48;;;11.50;58.80;;;;;;4955185;28;20047;-86
2021/05/01 07:25:43;;;;;;;19.48;10.07;;;11.50;60.00;;;;;;4943850;28;20067;-87
2021/05/01 07:28:16;;;;;;;20.17;10.13;;;11.90;58.50;;;;;;4938303;28;20047;-85
2021/05/01 07:30:48;;;;;;;18.73;9.52;;;11.70;58.50;;;;;;4945312;28;20064;-86
2021/05/01 07:33:21;;;;;;;20.10;10.82;;;12.00;58.80;;;;;;4947175;28;20051;-85
2021/05/01 07:35:53;;;;;;;20.50;10.05;;;12.00;57.80;;;;;;4941126;28;20099;-85
2021/05/01 07:38:23;;;;;;;16.73;9.52;;;11.90;58.10;;;;;;4938390;28;20053;-87
2021/05/01 07:40:52;;;;;;;22.73;10.48;;;12.00;58.50;;;;;;4955170;28;20047;-86
2021/05/01 07:43:21;;;;;;;18.23;9.05;;;12.20;56.70;;;;;;4926698;28;20063;-84
2021/05/01 07:45:52;;;;;;;16.98;9.18;;;12.00;56.40;;;;;;4946678;28;20062;-87
2021/05/01 07:48:21;;;;;;;17.25;9.30;;;11.90;56.40;;;;;;4945464;28;20335;-83
2021/05/01 07:50:50;;;;;;;15.32;8.50;;;11.90;56.60;;;;;;4948426;28;20107;-86
2021/05/01 07:53:17;;;;;;;18.00;8.57;;;12.20;56.10;;;;;;4956686;28;20059;-85
2021/05/01 07:55:44;;;;;;;18.35;8.98;;;12.50;55.50;;;;;;4933774;29;20050;-85
2021/05/01 07:58:12;;;;;;;18.00;8.63;;;12.50;55.40;;;;;;4943270;28;20098;-86
2021/05/01 08:00:40;;;;;;;14.00;8.02;;;12.60;54.80;;;;;;4948889;28;20099;-85
2021/05/01 08:03:08;;;;;;;18.13;8.67;;;12.60;54.30;;;;;;4961518;28;20103;-85
2021/05/01 08:05:36;;;;;;;18.13;9.32;;;12.70;54.20;;;;;;4950289;28;20043;-88
2021/05/01 08:08:04;;;;;;;16.63;8.63;;;12.70;53.90;;;;;;4949777;28;20047;-84
2021/05/01 08:10:41;;;;;;;16.85;8.60;;;13.00;53.40;;;;;;4953209;28;20066;-86
2021/05/01 08:13:08;;;;;;;14.45;8.20;;;13.10;52.90;;;;;;4949010;28;20058;-86
2021/05/01 08:15:42;;;;;;;17.17;8.48;;;13.10;52.40;;;;;;4944615;29;20343;-83
2021/05/01 08:18:09;;;;;;;15.68;8.90;;;13.10;52.70;;;;;;4941212;28;20342;-83
2021/05/01 08:20:37;;;;;;;21.67;9.25;;;13.20;51.90;;;;;;4944051;29;20519;-86
2021/05/01 08:23:05;;;;;;;18.45;9.20;;;13.20;51.70;;;;;;4951715;28;20247;-87
2021/05/01 08:25:32;;;;;;;17.42;8.55;;;13.20;51.50;;;;;;4948249;28;20055;-87
2021/05/01 08:27:59;;;;;;;19.35;8.50;;;13.40;51.20;;;;;;4949319;28;20074;-85
2021/05/01 08:30:27;;;;;;;17.00;8.85;;;13.50;51.10;;;;;;4948195;28;20099;-87
2021/05/01 08:32:54;;;;;;;16.65;8.43;;;13.60;50.50;;;;;;4947003;28;20331;-86
2021/05/01 08:35:21;;;;;;;15.57;8.75;;;13.90;49.80;;;;;;4948936;28;20047;-86
2021/05/01 08:37:48;;;;;;;21.20;9.32;;;13.90;49.90;;;;;;4951844;28;20150;-85
2021/05/01 08:40:35;;;;;;;15.90;8.07;;;14.00;49.50;;;;;;4948873;28;20051;-87
2021/05/01 08:43:08;;;;;;;18.05;9.82;;;14.30;49.30;;;;;;4949770;28;20055;-87
2021/05/01 08:45:35;;;;;;;16.50;9.07;;;14.90;48.00;;;;;;4945076;29;20047;-84
2021/05/01 08:48:04;;;;;;;15.57;9.38;;;15.10;48.10;;;;;;4945319;28;20059;-86
2021/05/01 08:50:39;;;;;;;14.13;8.68;;;15.30;47.60;;;;;;4958313;28;20138;-82
2021/05/01 08:53:07;;;;;;;16.35;9.48;;;15.40;46.90;;;;;;4940441;28;20330;-87
2021/05/01 08:55:38;;;;;;;17.52;9.40;;;15.50;46.70;;;;;;4944553;28;20048;-87
2021/05/01 08:58:07;;;;;;;18.20;9.27;;;15.30;47.10;;;;;;4946542;28;20039;-85
2021/05/01 09:00:35;;;;;;;17.77;9.63;;;15.40;47.30;;;;;;4949152;28;20051;-87
2021/05/01 09:03:07;;;;;;;22.30;9.25;;;15.40;46.80;;;;;;4945816;28;20375;-85
2021/05/01 09:05:37;;;;;;;16.77;9.63;;;15.40;46.60;;;;;;4942561;28;20051;-84
2021/05/01 09:08:06;;;;;;;16.13;9.52;;;15.40;46.70;;;;;;4949905;28;20111;-85
2021/05/01 09:10:42;;;;;;;15.10;8.43;;;15.50;47.10;;;;;;4944808;29;20183;-86
2021/05/01 09:13:18;;;;;;;19.73;9.50;;;15.80;46.50;;;;;;4949042;28;20063;-87
2021/05/01 09:16:02;;;;;;;17.75;9.05;;;16.20;46.30;;;;;;4944397;28;20059;-83
2021/05/01 09:18:46;;;;;;;16.63;9.18;;;16.50;45.40;;;;;;4952697;28;20351;-85
2021/05/01 09:21:30;;;;;;;14.23;7.38;;;16.40;44.40;;;;;;4939339;28;20288;-85
2021/05/01 09:24:00;;;;;;;14.23;6.90;;;16.20;43.30;;;;;;4948628;28;20058;-82
2021/05/01 09:26:37;;;;;;;12.25;6.63;;;16.00;43.50;;;;;;4947613;28;20040;-85
2021/05/01 09:29:05;;;;;;;16.60;7.05;;;15.90;43.50;;;;;;4943028;28;20055;-83
2021/05/01 09:31:41;;;;;;;11.45;5.95;;;15.60;45.10;;;;;;4952774;28;20066;-85
2021/05/01 09:34:08;;;;;;;10.32;4.60;;;15.30;45.30;;;;;;4957186;28;20044;-83
2021/05/01 09:36:35;;;;;;;16.05;6.43;;;15.70;44.80;;;;;;4948256;29;20055;-85
2021/05/01 09:39:10;;;;;;;14.82;6.53;;;16.40;43.30;;;;;;4926297;28;20047;-86
2021/05/01 09:41:40;;;;;;;18.27;7.50;;;16.20;43.50;;;;;;4949087;28;20051;-85
2021/05/01 09:44:10;;;;;;;13.88;7.00;;;16.60;43.50;;;;;;4946945;28;20043;-86
2021/05/01 09:46:48;;;;;;;13.68;7.28;;;16.70;43.10;;;;;;4933478;29;20366;-86
2021/05/01 09:49:16;;;;;;;11.95;5.50;;;17.30;42.30;;;;;;4945424;28;20071;-85
2021/05/01 09:51:46;;;;;;;10.40;5.55;;;16.90;41.50;;;;;;4945995;28;20059;-85
2021/05/01 09:54:15;;;;;;;8.80;5.55;;;16.90;42.00;;;;;;4945258;28;20055;-86
2021/05/01 09:56:51;;;;;;;11.18;5.90;;;16.80;42.20;;;;;;4951769;28;20062;-85
2021/05/01 09:59:19;;;;;;;11.05;5.75;;;16.50;42.50;;;;;;4962022;28;20055;-88
2021/05/01 10:01:58;;;;;;;11.60;5.88;;;16.80;42.10;;;;;;4945438;28;20055;-85
2021/05/01 10:04:27;;;;;;;10.88;5.35;;;17.00;42.60;;;;;;4963676;28;20052;-84
2021/05/01 10:06:57;;;;;;;10.73;5.30;;;17.00;42.00;;;;;;4947175;28;20151;-85
2021/05/01 10:09:26;;;;;;;12.63;5.38;;;16.70;42.10;;;;;;4931797;29;20212;-84
2021/05/01 10:12:03;;;;;;;9.23;4.78;;;16.70;41.80;;;;;;4950744;28;20059;-87
2021/05/01 10:14:36;;;;;;;13.73;5.28;;;16.60;41.90;;;;;;4967312;28;20043;-87
2021/05/01 10:17:06;;;;;;;9.75;5.45;;;16.90;42.10;;;;;;4964643;28;20341;-86
2021/05/01 10:19:51;;;;;;;11.83;6.03;;;17.10;41.30;;;;;;4951248;28;20051;-85
2021/05/01 10:22:30;;;;;;;15.10;6.47;;;16.90;42.10;;;;;;4953353;28;20312;-86
2021/05/01 10:24:58;;;;;;;10.05;5.57;;;17.20;41.30;;;;;;4965578;28;20087;-86
2021/05/01 10:27:41;;;;;;;10.57;6.15;;;17.50;39.80;;;;;;4951100;28;20674;-87
2021/05/01 10:30:27;;;;;;;10.75;5.82;;;17.70;39.50;;;;;;4956595;28;20102;-84
2021/05/01 10:32:58;;;;;;;12.73;7.45;;;17.50;39.80;;;;;;4948138;28;20055;-86
2021/05/01 10:35:30;;;;;;;14.60;8.00;;;17.60;40.80;;;;;;4948240;29;20047;-86
2021/05/01 10:37:58;;;;;;;16.77;8.40;;;17.30;41.70;;;;;;4948448;29;20043;-87
2021/05/01 10:40:41;;;;;;;14.38;8.00;;;16.90;42.00;;;;;;4952161;28;20507;-87
2021/05/01 10:43:14;;;;;;;15.38;8.23;;;16.70;43.00;;;;;;4939955;28;20059;-89
2021/05/01 10:45:48;;;;;;;13.20;7.38;;;16.70;43.10;;;;;;4947938;28;20048;-83
2021/05/01 10:48:15;;;;;;;10.65;5.82;;;17.30;42.60;;;;;;4929347;28;20051;-84
2021/05/01 10:50:42;;;;;;;19.95;7.75;;;17.80;41.00;;;;;;4943049;28;20055;-83
2021/05/01 10:53:21;;;;;;;12.25;6.80;;;17.60;40.60;;;;;;4962389;28;20078;-86
2021/05/01 10:55:50;;;;;;;10.90;6.40;;;17.30;40.70;;;;;;4966824;28;20055;-85
2021/05/01 10:58:36;;;;;;;13.30;6.40;;;17.30;41.10;;;;;;4969072;28;20055;-86
2021/05/01 11:01:15;;;;;;;11.68;5.78;;;17.60;40.10;;;;;;4955289;28;20362;-84
2021/05/01 11:03:45;;;;;;;11.05;6.90;;;17.60;40.90;;;;;;4979249;28;20134;-87
2021/05/01 11:06:22;;;;;;;;;;;17.50;40.40;;;;;;4949685;28;20043;-86
2021/05/01 11:09:00;;;;;;;13.85;7.63;;;17.40;40.60;;;;;;4956073;28;19942;-86
2021/05/01 11:11:33;;;;;;;13.35;7.47;;;17.60;40.60;;;;;;4947592;29;20055;-85
2021/05/01 11:14:33;;;;;;;11.35;6.00;;;17.40;41.20;;;;;;4937770;28;20082;-82
2021/05/01 11:17:11;;;;;;;;;;;17.90;39.80;;;;;;4970489;28;20254;-87
2021/05/01 11:19:44;;;;;;;11.57;6.00;;;18.00;39.20;;;;;;4970673;28;20005;-86
2021/05/01 11:22:16;;;;;;;11.95;6.88;;;18.00;39.10;;;;;;4962470;28;20130;-86
2021/05/01 11:24:46;;;;;;;11.02;6.18;;;17.20;41.10;;;;;;4974071;28;20048;-85
2021/05/01 11:27:14;;;;;;;12.20;5.95;;;17.40;40.30;;;;;;4929702;28;20055;-84
2021/05/01 11:29:43;;;;;;;9.40;5.93;;;17.30;40.70;;;;;;4966389;28;20338;-84
2021/05/01 11:32:10;;;;;;;13.23;6.07;;;17.40;40.50;;;;;;4965536;28;20051;-85
2021/05/01 11:34:37;;;;;;;12.43;6.80;;;17.20;41.70;;;;;;4953868;28;20063;-83
2021/05/01 11:37:07;;;;;;;11.38;6.10;;;17.10;40.90;;;;;;4958117;28;20047;-85
2021/05/01 11:39:38;;;;;;;10.77;5.75;;;17.20;40.80;;;;;;4958849;28;20047;-84
2021/05/01 11:42:06;;;;;;;11.13;6.00;;;17.50;39.70;;;;;;4966827;28;20279;-84
2021/05/01 11:44:33;;;;;;;8.82;4.80;;;17.80;39.50;;;;;;4968202;28;20086;-84
2021/05/01 11:47:05;;;;;;;10.77;5.65;;;18.00;38.80;;;;;;4953031;28;20066;-88
2021/05/01 11:49:36;;;;;;;11.55;5.78;;;17.90;38.80;;;;;;4959895;28;20200;-86
2021/05/01 11:52:20;;;;;;;9.75;5.25;;;17.80;39.40;;;;;;4959972;28;20070;-86
2021/05/01 11:55:23;;;;;;;9.85;4.68;;;17.60;39.50;;;;;;4977655;28;20047;-82
2021/05/01 11:57:54;;;;;;;11.50;4.72;;;17.50;40.00;;;;;;4968817;28;20577;-83
2021/05/01 12:00:33;;;;;;;8.93;4.68;;;17.40;39.70;;;;;;4968596;28;20043;-82
2021/05/01 12:03:03;;;;;;;8.40;4.53;;;17.50;39.10;;;;;;4975127;28;20046;-85
2021/05/01 12:05:35;;;;;;;13.75;5.55;;;17.50;39.50;;;;;;4962941;28;20051;-85
2021/05/01 12:08:08;;;;;;;9.35;5.60;;;17.60;40.20;;;;;;4962907;28;20054;-85
2021/05/01 12:10:38;;;;;;;10.30;5.63;;;17.70;39.40;;;;;;4951993;29;20282;-87
2021/05/01 12:13:09;;;;;;;10.43;5.28;;;17.50;39.70;;;;;;4961638;28;20050;-85
2021/05/01 12:15:38;;;;;;;10.05;5.22;;;17.40;39.40;;;;;;4961038;28;20051;-84
2021/05/01 12:18:07;;;;;;;10.90;5.93;;;17.50;40.40;;;;;;4959959;28;20118;-85
2021/05/01 12:20:36;;;;;;;11.48;5.68;;;17.80;39.30;;;;;;4945228;29;20044;-84
2021/05/01 12:23:06;;;;;;;12.90;5.82;;;17.90;38.60;;;;;;4955358;28;20067;-86
2021/05/01 12:25:35;;;;;;;13.68;6.30;;;18.10;38.50;;;;;;4974251;28;20051;-87
2021/05/01 12:28:04;;;;;;;10.40;4.97;;;18.10;38.20;;;;;;4967001;28;20061;-86
2021/05/01 12:30:59;;;;;;;9.57;4.40;;;18.20;38.20;;;;;;4971328;28;20055;-85
2021/05/01 12:33:51;;;;;;;9.48;4.68;;;18.70;37.50;;;;;;4961393;28;20061;-84
2021/05/01 12:36:28;;;;;;;8.70;4.60;;;18.90;37.40;;;;;;4958952;28;20058;-87
2021/05/01 12:38:57;;;;;;;8.45;4.68;;;18.90;35.90;;;;;;4962243;28;20061;-87
2021/05/01 12:41:29;;;;;;;8.10;4.97;;;19.20;36.60;;;;;;4960228;28;20361;-86
2021/05/01 12:43:58;;;;;;;10.63;4.85;;;19.30;36.20;;;;;;4959209;28;20062;-86
2021/05/01 12:46:44;;;;;;;9.88;4.90;;;19.30;35.70;;;;;;4935954;29;20073;-86
2021/05/01 12:49:29;;;;;;;8.10;4.40;;;19.30;35.20;;;;;;4945763;28;20043;-86
2021/05/01 12:52:20;;;;;;;10.63;4.55;;;19.40;35.50;;;;;;4961893;28;20053;-87
2021/05/01 12:54:55;;;;;;;10.40;4.72;;;19.50;35.60;;;;;;4946282;29;20051;-87
2021/05/01 12:57:31;;;;;;;8.70;4.65;;;19.50;35.70;;;;;;4961371;28;20234;-87
2021/05/01 12:59:59;;;;;;;10.90;4.55;;;19.50;35.60;;;;;;4982833;28;20111;-84
2021/05/01 13:02:39;;;;;;;9.45;4.93;;;19.30;35.80;;;;;;4964828;28;20521;-86